Time;durP1;ratioP1;P1;durP2;ratioP2;P2;SDS_P1;SDS_P2;PMS_P1;PMS_P2;Temp;Humidity;BMP_temperature;BMP_pressure;BME280_temperature;BME280_humidity;BME280_pressure;Samples;Min_cycle;Max_cycle;Signal;HPM_P1;HPM_P2
2022/04/23 00:01:42;;;;;;;20.80;15.70;;;;;;;;;;5033084;28;20493;-70
2022/04/23 00:04:09;;;;;;;19.83;14.60;;;;;;;;;;5032976;28;20474;-72
2022/04/23 00:06:35;;;;;;;21.60;14.10;;;;;;;;;;5032878;28;20562;-70
2022/04/23 00:09:01;;;;;;;16.20;12.57;;;;;;;;;;5033001;28;20493;-72
2022/04/23 00:11:27;;;;;;;16.37;13.20;;;;;;;;;;5032948;28;20395;-71
2022/04/23 00:13:54;;;;;;;19.77;13.60;;;;;;;;;;5034142;28;20433;-72
2022/04/23 00:16:20;;;;;;;15.90;13.50;;;;;;;;;;5037006;28;20448;-71
2022/04/23 00:18:46;;;;;;;17.57;13.53;;;;;;;;;;5037126;28;20406;-72
2022/04/23 00:21:13;;;;;;;17.27;13.67;;;;;;;;;;5036953;28;20452;-69
2022/04/23 00:23:40;;;;;;;19.70;14.63;;;;;;;;;;5036820;28;20951;-72
2022/04/23 00:26:06;;;;;;;18.80;14.80;;;;;;;;;;5036958;28;20877;-71
2022/04/23 00:28:32;;;;;;;20.13;15.40;;;;;;;;;;5036798;28;20395;-70
2022/04/23 00:30:58;;;;;;;17.73;14.33;;;;;;;;;;5036707;28;20426;-70
2022/04/23 00:33:24;;;;;;;20.57;15.07;;;;;;;;;;5036749;28;20399;-72
2022/04/23 00:35:50;;;;;;;16.63;13.70;;;;;;;;;;5036701;28;20473;-68
2022/04/23 00:38:17;;;;;;;18.17;13.40;;;;;;;;;;5036729;28;20406;-69
2022/04/23 00:40:44;;;;;;;22.13;15.23;;;;;;;;;;5036524;28;20403;-70
2022/04/23 00:43:24;;;;;;;20.13;15.20;;;;;;;;;;5036381;28;20470;-71
2022/04/23 00:45:50;;;;;;;19.10;14.80;;;;;;;;;;5036533;28;20885;-72
2022/04/23 00:48:16;;;;;;;20.73;14.60;;;;;;;;;;5036502;28;20419;-71
2022/04/23 00:50:42;;;;;;;18.63;14.87;;;;;;;;;;5036347;28;20413;-71
2022/04/23 00:53:09;;;;;;;20.70;14.87;;;;;;;;;;5036395;28;20497;-65
2022/04/23 00:55:35;;;;;;;19.03;14.50;;;;;;;;;;5036313;28;20438;-72
2022/04/23 00:58:02;;;;;;;21.10;14.03;;;;;;;;;;5036308;28;20406;-71
2022/04/23 01:00:28;;;;;;;18.60;14.13;;;;;;;;;;5036218;28;20414;-68
2022/04/23 01:02:54;;;;;;;17.47;13.33;;;;;;;;;;5036183;28;20479;-72
2022/04/23 01:05:23;;;;;;;17.60;12.80;;;;;;;;;;5036063;28;20577;-72
2022/04/23 01:07:50;;;;;;;15.93;12.63;;;;;;;;;;5036256;28;20481;-73
2022/04/23 01:10:16;;;;;;;15.37;11.70;;;;;;;;;;5035994;28;20410;-73
2022/04/23 01:12:44;;;;;;;16.13;11.60;;;;;;;;;;5036026;28;20413;-72
2022/04/23 01:15:11;;;;;;;14.13;11.23;;;;;;;;;;5035774;28;20456;-72
2022/04/23 01:17:38;;;;;;;17.77;13.03;;;;;;;;;;5035831;28;20447;-72
2022/04/23 01:20:14;;;;;;;15.77;12.23;;;;;;;;;;5035920;28;20418;-69
2022/04/23 01:22:45;;;;;;;16.03;11.27;;;;;;;;;;5035737;28;20399;-73
2022/04/23 01:25:12;;;;;;;18.87;12.27;;;;;;;;;;5035244;28;20530;-73
2022/04/23 01:27:42;;;;;;;14.03;10.70;;;;;;;;;;5035800;28;20435;-73
2022/04/23 01:30:10;;;;;;;13.90;10.70;;;;;;;;;;5035594;28;20433;-71
2022/04/23 01:32:36;;;;;;;14.57;11.00;;;;;;;;;;5035729;28;20904;-73
2022/04/23 01:35:03;;;;;;;14.30;11.20;;;;;;;;;;5035614;28;20411;-72
2022/04/23 01:37:29;;;;;;;15.30;10.57;;;;;;;;;;5035618;28;20829;-73
2022/04/23 01:39:55;;;;;;;15.20;11.17;;;;;;;;;;5035441;28;20779;-72
2022/04/23 01:42:21;;;;;;;15.83;10.93;;;;;;;;;;5034327;28;20415;-73
2022/04/23 01:44:48;;;;;;;18.50;12.90;;;;;;;;;;5035203;28;20478;-73
2022/04/23 01:47:14;;;;;;;16.07;11.47;;;;;;;;;;5034194;28;20750;-73
2022/04/23 01:49:41;;;;;;;16.07;11.90;;;;;;;;;;5035288;28;20411;-73
2022/04/23 01:52:07;;;;;;;16.17;12.07;;;;;;;;;;5035361;28;20445;-72
2022/04/23 01:54:34;;;;;;;16.07;12.40;;;;;;;;;;5035303;28;20442;-71
2022/04/23 01:57:00;;;;;;;16.60;11.90;;;;;;;;;;5035202;28;20398;-70
2022/04/23 01:59:26;;;;;;;15.53;11.70;;;;;;;;;;5035211;28;20485;-72
2022/04/23 02:01:52;;;;;;;16.10;12.10;;;;;;;;;;5035150;28;20406;-71
2022/04/23 02:04:18;;;;;;;17.63;11.50;;;;;;;;;;5034877;28;20462;-72
2022/04/23 02:06:44;;;;;;;15.90;12.27;;;;;;;;;;5034962;28;20454;-70
2022/04/23 02:09:10;;;;;;;16.23;11.93;;;;;;;;;;5034915;28;20430;-71
2022/04/23 02:11:36;;;;;;;16.40;11.60;;;;;;;;;;5034988;28;20475;-72
2022/04/23 02:14:02;;;;;;;16.03;11.90;;;;;;;;;;5034753;28;20512;-73
2022/04/23 02:16:32;;;;;;;17.67;13.03;;;;;;;;;;5034877;28;20413;-72
2022/04/23 02:18:58;;;;;;;16.07;12.70;;;;;;;;;;5034867;28;20422;-73
2022/04/23 02:21:25;;;;;;;17.37;12.73;;;;;;;;;;5034769;28;20409;-70
2022/04/23 02:23:52;;;;;;;17.40;12.17;;;;;;;;;;5034669;28;20477;-71
2022/04/23 02:26:20;;;;;;;16.90;13.00;;;;;;;;;;5033414;28;20812;-71
2022/04/23 02:28:47;;;;;;;17.67;13.43;;;;;;;;;;5034523;28;20417;-71
2022/04/23 02:31:13;;;;;;;21.07;15.07;;;;;;;;;;5034551;28;20422;-71
2022/04/23 02:33:39;;;;;;;17.40;12.87;;;;;;;;;;5034497;28;20418;-72
2022/04/23 02:36:06;;;;;;;18.13;13.30;;;;;;;;;;5033643;28;20525;-71
2022/04/23 02:38:39;;;;;;;19.37;14.13;;;;;;;;;;5034489;28;20485;-72
2022/04/23 02:41:06;;;;;;;18.77;13.47;;;;;;;;;;5034408;28;20889;-70
2022/04/23 02:43:32;;;;;;;19.00;13.50;;;;;;;;;;5034186;28;20489;-71
2022/04/23 02:46:00;;;;;;;18.97;13.10;;;;;;;;;;5034334;28;20438;-73
2022/04/23 02:48:26;;;;;;;17.87;13.50;;;;;;;;;;5032600;28;20908;-70
2022/04/23 02:50:52;;;;;;;17.90;13.50;;;;;;;;;;5034243;28;20450;-71
2022/04/23 02:53:18;;;;;;;18.83;13.93;;;;;;;;;;5034175;28;20419;-72
2022/04/23 02:55:46;;;;;;;20.33;14.67;;;;;;;;;;5034030;28;20406;-73
2022/04/23 02:58:12;;;;;;;19.33;13.77;;;;;;;;;;5034130;28;20441;-70
2022/04/23 03:00:39;;;;;;;20.53;15.07;;;;;;;;;;5034104;28;20414;-70
2022/04/23 03:03:05;;;;;;;20.50;14.67;;;;;;;;;;5033822;28;20600;-72
2022/04/23 03:05:31;;;;;;;17.03;13.47;;;;;;;;;;5033658;28;20821;-70
2022/04/23 03:08:00;;;;;;;19.63;14.50;;;;;;;;;;5033903;28;20438;-70
2022/04/23 03:10:27;;;;;;;20.20;14.60;;;;;;;;;;5033810;28;20430;-69
2022/04/23 03:12:55;;;;;;;21.43;14.33;;;;;;;;;;5033680;28;20480;-72
2022/04/23 03:15:22;;;;;;;19.93;13.40;;;;;;;;;;5033594;28;20513;-70
2022/04/23 03:17:48;;;;;;;20.00;14.23;;;;;;;;;;5032490;28;20910;-72
2022/04/23 03:20:15;;;;;;;19.43;14.90;;;;;;;;;;5033686;28;20498;-74
2022/04/23 03:22:41;;;;;;;23.60;15.03;;;;;;;;;;5033537;28;20406;-70
2022/04/23 03:25:08;;;;;;;18.80;13.80;;;;;;;;;;5033610;28;20445;-68
2022/04/23 03:27:34;;;;;;;20.33;15.80;;;;;;;;;;5033518;28;20758;-70
2022/04/23 03:30:01;;;;;;;23.63;15.73;;;;;;;;;;5033514;28;20826;-71
2022/04/23 03:32:27;;;;;;;17.77;13.63;;;;;;;;;;5033556;28;20406;-70
2022/04/23 03:34:53;;;;;;;19.07;15.07;;;;;;;;;;5033417;28;20414;-68
2022/04/23 03:37:19;;;;;;;20.57;14.40;;;;;;;;;;5033579;28;20398;-71
2022/04/23 03:39:46;;;;;;;19.03;14.60;;;;;;;;;;5033352;28;20411;-70
2022/04/23 03:42:12;;;;;;;18.30;13.77;;;;;;;;;;5033497;28;20410;-69
2022/04/23 03:44:38;;;;;;;21.10;14.70;;;;;;;;;;5033137;28;20474;-73
2022/04/23 03:47:04;;;;;;;20.33;14.27;;;;;;;;;;5033041;28;20498;-72
2022/04/23 03:49:31;;;;;;;20.90;14.57;;;;;;;;;;5033262;28;20501;-72
2022/04/23 03:51:57;;;;;;;22.27;15.70;;;;;;;;;;5033294;28;20425;-73
2022/04/23 03:54:23;;;;;;;17.40;13.07;;;;;;;;;;5033213;28;20411;-73
2022/04/23 03:56:49;;;;;;;20.67;15.43;;;;;;;;;;5033268;28;20414;-73
2022/04/23 03:59:20;;;;;;;19.73;14.17;;;;;;;;;;5033146;28;20739;-72
2022/04/23 04:01:47;;;;;;;19.63;13.93;;;;;;;;;;5033240;28;20410;-72
2022/04/23 04:04:14;;;;;;;21.50;14.70;;;;;;;;;;5033141;28;20480;-73
2022/04/23 04:06:40;;;;;;;22.10;14.17;;;;;;;;;;5032835;28;20462;-72
2022/04/23 04:09:06;;;;;;;19.37;12.93;;;;;;;;;;5033126;28;20415;-69
2022/04/23 04:12:01;;;;;;;18.57;13.00;;;;;;;;;;5033215;28;20415;-71
2022/04/23 04:14:18;;;;;;;17.70;11.80;;;;;;;;;;5032695;28;21008;-71
2022/04/23 04:16:45;;;;;;;16.50;11.33;;;;;;;;;;5033100;28;20418;-70
2022/04/23 04:19:14;;;;;;;17.20;12.27;;;;;;;;;;5033011;28;20403;-70
2022/04/23 04:21:41;;;;;;;14.93;11.50;;;;;;;;;;5032917;28;20399;-71
2022/04/23 04:24:07;;;;;;;14.83;10.80;;;;;;;;;;5032882;28;20474;-72
2022/04/23 04:26:33;;;;;;;16.50;12.60;;;;;;;;;;5032804;28;20441;-71
2022/04/23 04:28:59;;;;;;;16.07;11.53;;;;;;;;;;5032987;28;20885;-70
2022/04/23 04:34:10;;;;;;;14.63;11.23;;;;;;;;;;5032911;28;20402;-71
2022/04/23 04:36:36;;;;;;;15.80;10.97;;;;;;;;;;5032823;28;20800;-73
2022/04/23 04:39:02;;;;;;;13.60;9.73;;;;;;;;;;5032787;28;20418;-72
2022/04/23 04:41:29;;;;;;;14.63;11.07;;;;;;;;;;5032911;28;20403;-71
2022/04/23 04:43:55;;;;;;;15.73;10.43;;;;;;;;;;5032678;28;20484;-71
2022/04/23 04:46:21;;;;;;;15.57;11.77;;;;;;;;;;5032834;28;20415;-73
2022/04/23 04:48:47;;;;;;;15.43;10.70;;;;;;;;;;5032409;28;20506;-69
2022/04/23 04:51:13;;;;;;;14.40;11.20;;;;;;;;;;5032742;28;20422;-70
2022/04/23 04:53:39;;;;;;;15.80;11.07;;;;;;;;;;5032658;28;20399;-72
2022/04/23 04:56:07;;;;;;;15.23;10.90;;;;;;;;;;5032651;28;20464;-73
2022/04/23 04:58:33;;;;;;;17.63;11.57;;;;;;;;;;5032676;28;20425;-73
2022/04/23 05:00:59;;;;;;;16.70;11.47;;;;;;;;;;5035552;28;20407;-71
2022/04/23 05:03:25;;;;;;;14.17;11.10;;;;;;;;;;5036156;28;20983;-73
2022/04/23 05:05:52;;;;;;;17.60;10.93;;;;;;;;;;5035936;28;20941;-71
2022/04/23 05:08:18;;;;;;;15.10;11.50;;;;;;;;;;5036201;28;20423;-72
2022/04/23 05:10:44;;;;;;;14.10;10.90;;;;;;;;;;5036192;28;20406;-73
2022/04/23 05:13:10;;;;;;;17.17;12.10;;;;;;;;;;5035838;28;20451;-71
2022/04/23 05:15:37;;;;;;;15.00;11.50;;;;;;;;;;5036022;28;20501;-73
2022/04/23 05:18:03;;;;;;;14.60;10.50;;;;;;;;;;5035985;28;20413;-71
2022/04/23 05:20:29;;;;;;;15.90;10.43;;;;;;;;;;5035909;28;20536;-71
2022/04/23 05:22:55;;;;;;;16.53;11.70;;;;;;;;;;5035782;28;20413;-70
2022/04/23 05:25:21;;;;;;;17.07;11.70;;;;;;;;;;5035867;28;20432;-69
2022/04/23 05:27:47;;;;;;;13.87;10.77;;;;;;;;;;5035817;28;20953;-70
2022/04/23 05:30:13;;;;;;;16.50;11.50;;;;;;;;;;5034555;28;20406;-71
2022/04/23 05:32:39;;;;;;;18.90;11.77;;;;;;;;;;5035592;28;20397;-71
2022/04/23 05:35:05;;;;;;;14.30;10.13;;;;;;;;;;5035675;28;20445;-70
2022/04/23 05:37:31;;;;;;;17.77;11.47;;;;;;;;;;5034335;28;20842;-70
2022/04/23 05:39:57;;;;;;;15.10;10.53;;;;;;;;;;5035540;28;20443;-73
2022/04/23 05:42:23;;;;;;;15.30;10.67;;;;;;;;;;5035797;28;20438;-71
2022/04/23 05:44:49;;;;;;;14.30;10.70;;;;;;;;;;5035216;28;20474;-72
2022/04/23 05:47:15;;;;;;;16.37;11.20;;;;;;;;;;5035506;28;20421;-69
2022/04/23 05:49:41;;;;;;;16.93;11.77;;;;;;;;;;5035737;28;20414;-71
2022/04/23 05:52:07;;;;;;;16.43;11.30;;;;;;;;;;5035422;28;20406;-68
2022/04/23 05:54:34;;;;;;;15.53;10.90;;;;;;;;;;5035363;28;20416;-71
2022/04/23 05:57:00;;;;;;;13.77;9.83;;;;;;;;;;5034197;28;20406;-69
2022/04/23 05:59:29;;;;;;;15.63;11.47;;;;;;;;;;5035342;28;20422;-67
2022/04/23 06:01:55;;;;;;;14.10;9.93;;;;;;;;;;5035256;28;20413;-72
2022/04/23 06:04:22;;;;;;;14.30;10.10;;;;;;;;;;5034922;28;20968;-71
2022/04/23 06:06:48;;;;;;;14.20;11.03;;;;;;;;;;5034752;28;20489;-70
2022/04/23 06:09:14;;;;;;;14.13;10.20;;;;;;;;;;5034968;28;20889;-71
2022/04/23 06:11:40;;;;;;;16.63;11.10;;;;;;;;;;5032395;28;20418;-73
2022/04/23 06:14:06;;;;;;;13.60;10.17;;;;;;;;;;5034712;28;20439;-70
2022/04/23 06:16:34;;;;;;;14.60;10.57;;;;;;;;;;5034895;28;20510;-72
2022/04/23 06:19:00;;;;;;;17.87;10.10;;;;;;;;;;5034867;28;20870;-70
2022/04/23 06:21:26;;;;;;;15.30;10.60;;;;;;;;;;5034615;28;20513;-70
2022/04/23 06:23:52;;;;;;;15.43;11.10;;;;;;;;;;5034466;28;20528;-70
2022/04/23 06:26:18;;;;;;;14.77;10.33;;;;;;;;;;5034700;28;20403;-71
2022/04/23 06:28:44;;;;;;;14.43;10.10;;;;;;;;;;5033158;28;20898;-73
2022/04/23 06:31:10;;;;;;;12.60;9.67;;;;;;;;;;5034499;28;20414;-71
2022/04/23 06:33:36;;;;;;;12.77;9.73;;;;;;;;;;5034278;28;20514;-70
2022/04/23 06:36:02;;;;;;;14.37;10.20;;;;;;;;;;5034469;28;20505;-72
2022/04/23 06:38:28;;;;;;;14.10;10.37;;;;;;;;;;5034496;28;20412;-70
2022/04/23 06:40:55;;;;;;;14.30;9.93;;;;;;;;;;5034367;28;20411;-71
2022/04/23 06:43:21;;;;;;;12.00;9.03;;;;;;;;;;5034144;28;20466;-68
2022/04/23 06:45:47;;;;;;;10.50;7.97;;;;;;;;;;5034261;28;20514;-69
2022/04/23 06:48:13;;;;;;;12.30;9.50;;;;;;;;;;5034149;28;20410;-72
2022/04/23 06:50:39;;;;;;;13.07;9.27;;;;;;;;;;5034095;28;20460;-72
2022/04/23 06:53:05;;;;;;;11.33;9.20;;;;;;;;;;5034129;28;20504;-70
2022/04/23 06:55:31;;;;;;;11.60;8.73;;;;;;;;;;5034251;28;20493;-71
2022/04/23 06:57:57;;;;;;;12.10;8.93;;;;;;;;;;5034122;28;20410;-70
2022/04/23 07:00:24;;;;;;;10.77;8.57;;;;;;;;;;5033912;28;20399;-70
2022/04/23 07:02:50;;;;;;;11.50;8.20;;;;;;;;;;5033946;28;20469;-71
2022/04/23 07:05:16;;;;;;;10.40;8.60;;;;;;;;;;5033709;28;20414;-72
2022/04/23 07:07:53;;;;;;;9.93;8.00;;;;;;;;;;5033620;28;20458;-71
2022/04/23 07:10:19;;;;;;;11.20;8.93;;;;;;;;;;5033945;28;20442;-72
2022/04/23 07:12:45;;;;;;;12.03;9.13;;;;;;;;;;5033694;28;20434;-71
2022/04/23 07:15:11;;;;;;;11.30;9.00;;;;;;;;;;5033596;28;20430;-72
2022/04/23 07:17:37;;;;;;;10.90;8.90;;;;;;;;;;5033759;28;20402;-72
2022/04/23 07:20:03;;;;;;;11.93;8.80;;;;;;;;;;5033756;28;20438;-72
2022/04/23 07:22:29;;;;;;;10.83;8.43;;;;;;;;;;5033311;28;20493;-72
2022/04/23 07:24:55;;;;;;;10.93;8.60;;;;;;;;;;5033494;28;20907;-73
2022/04/23 07:27:21;;;;;;;10.23;8.03;;;;;;;;;;5033532;28;20409;-71
2022/04/23 07:29:47;;;;;;;13.57;9.07;;;;;;;;;;5033524;28;20399;-70
2022/04/23 07:32:13;;;;;;;10.23;8.40;;;;;;;;;;5033409;28;20831;-72
2022/04/23 07:37:31;;;;;;;11.20;8.23;;;;;;;;;;5033510;28;20426;-69
2022/04/23 07:40:05;;;;;;;10.60;8.40;;;;;;;;;;5033417;28;20395;-73
2022/04/23 07:42:31;;;;;;;8.93;7.30;;;;;;;;;;5033410;28;21007;-73
2022/04/23 07:44:57;;;;;;;20.53;9.00;;;;;;;;;;5033017;28;20509;-72
2022/04/23 07:47:24;;;;;;;11.03;8.27;;;;;;;;;;5033180;28;20600;-72
2022/04/23 07:49:50;;;;;;;10.97;8.13;;;;;;;;;;5033345;28;20951;-71
2022/04/23 07:52:17;;;;;;;11.77;8.60;;;;;;;;;;5033289;28;20425;-70
2022/04/23 07:54:43;;;;;;;12.27;7.70;;;;;;;;;;5033101;28;20410;-70
2022/04/23 07:57:10;;;;;;;11.53;7.90;;;;;;;;;;5033032;28;20446;-70
2022/04/23 07:59:43;;;;;;;9.63;7.23;;;;;;;;;;5033183;28;20402;-72
2022/04/23 08:02:09;;;;;;;13.30;8.20;;;;;;;;;;5033109;28;20529;-71
2022/04/23 08:04:36;;;;;;;9.37;7.57;;;;;;;;;;5032894;28;20492;-73
2022/04/23 08:07:02;;;;;;;11.60;8.17;;;;;;;;;;5032645;28;20547;-72
2022/04/23 08:09:28;;;;;;;12.40;8.03;;;;;;;;;;5032973;28;20419;-69
2022/04/23 08:11:54;;;;;;;11.07;7.57;;;;;;;;;;5033122;28;20403;-72
2022/04/23 08:14:20;;;;;;;11.70;8.10;;;;;;;;;;5032851;28;20446;-74
2022/04/23 08:16:49;;;;;;;10.30;8.00;;;;;;;;;;5033018;28;20502;-72
2022/04/23 08:19:17;;;;;;;10.97;7.50;;;;;;;;;;5032942;28;20501;-72
2022/04/23 08:21:43;;;;;;;9.53;7.03;;;;;;;;;;5031704;28;20508;-73
2022/04/23 08:24:09;;;;;;;9.00;7.70;;;;;;;;;;5032859;28;20516;-73
2022/04/23 08:26:35;;;;;;;9.37;6.93;;;;;;;;;;5032847;28;20406;-73
2022/04/23 08:31:46;;;;;;;12.60;7.47;;;;;;;;;;5033265;28;20405;-72
2022/04/23 08:34:12;;;;;;;10.47;7.60;;;;;;;;;;5033001;28;20497;-73
2022/04/23 08:36:39;;;;;;;12.67;7.87;;;;;;;;;;5036825;28;20398;-73
2022/04/23 08:39:06;;;;;;;11.87;8.30;;;;;;;;;;5036715;28;20417;-72
2022/04/23 08:41:34;;;;;;;10.33;8.10;;;;;;;;;;5036688;28;20440;-69
2022/04/23 08:44:06;;;;;;;9.97;7.60;;;;;;;;;;5036283;28;20523;-71
2022/04/23 08:46:39;;;;;;;10.10;7.80;;;;;;;;;;5035198;28;20992;-73
2022/04/23 08:49:10;;;;;;;10.97;8.33;;;;;;;;;;5036401;28;20489;-71
2022/04/23 08:51:37;;;;;;;11.13;7.90;;;;;;;;;;5036471;28;20436;-73
2022/04/23 08:54:07;;;;;;;10.07;7.73;;;;;;;;;;5036376;28;20398;-71
2022/04/23 08:56:34;;;;;;;10.47;8.10;;;;;;;;;;5036440;28;20403;-71
2022/04/23 08:59:00;;;;;;;13.13;9.03;;;;;;;;;;5036353;28;20512;-68
2022/04/23 09:01:30;;;;;;;12.67;8.87;;;;;;;;;;5036265;28;20436;-71
2022/04/23 09:03:57;;;;;;;11.33;8.90;;;;;;;;;;5036171;28;20469;-72
2022/04/23 09:06:23;;;;;;;11.03;8.57;;;;;;;;;;5036042;28;20462;-69
2022/04/23 09:09:07;;;;;;;9.63;8.10;;;;;;;;;;5036111;28;20473;-72
2022/04/23 09:11:36;;;;;;;11.37;9.17;;;;;;;;;;5036060;28;20402;-69
2022/04/23 09:14:06;;;;;;;10.43;7.53;;;;;;;;;;5035911;28;20517;-73
2022/04/23 09:25:11;;;;;;;10.80;8.10;;;;;;;;;;5035812;28;20509;-72
2022/04/23 09:27:43;;;;;;;12.33;8.60;;;;;;;;;;5035580;28;20402;-70
2022/04/23 09:30:10;;;;;;;10.27;8.60;;;;;;;;;;5035870;28;20438;-72
2022/04/23 09:32:36;;;;;;;8.90;7.13;;;;;;;;;;5035723;28;20449;-73
2022/04/23 09:35:09;;;;;;;11.23;7.70;;;;;;;;;;5035605;28;20492;-73
2022/04/23 09:40:21;;;;;;;9.90;7.93;;;;;;;;;;5035668;28;20408;-68
2022/04/23 09:43:06;;;;;;;12.13;7.87;;;;;;;;;;5035424;28;20417;-72
2022/04/23 09:45:32;;;;;;;8.97;7.43;;;;;;;;;;5035078;28;20434;-69
2022/04/23 09:48:04;;;;;;;11.57;8.30;;;;;;;;;;5035367;28;20391;-68
2022/04/23 09:50:37;;;;;;;9.43;8.13;;;;;;;;;;5035243;28;20441;-71
2022/04/23 09:53:10;;;;;;;9.93;8.53;;;;;;;;;;5035233;28;20410;-73
2022/04/23 09:55:36;;;;;;;12.10;9.37;;;;;;;;;;5035190;28;20520;-66
2022/04/23 09:58:09;;;;;;;10.43;7.90;;;;;;;;;;5035289;28;20441;-74
2022/04/23 10:01:03;;;;;;;8.67;7.27;;;;;;;;;;5035150;28;20446;-70
2022/04/23 10:06:35;;;;;;;10.00;7.90;;;;;;;;;;5034507;28;20500;-72
2022/04/23 10:09:02;;;;;;;10.00;7.00;;;;;;;;;;5034984;28;20422;-73
2022/04/23 10:14:50;;;;;;;8.30;5.97;;;;;;;;;;5034874;28;20420;-71
2022/04/23 10:17:20;;;;;;;7.23;5.93;;;;;;;;;;5034318;28;20402;-68
2022/04/23 10:19:48;;;;;;;9.93;6.87;;;;;;;;;;5034526;28;20759;-71
2022/04/23 10:22:22;;;;;;;8.23;5.83;;;;;;;;;;5034721;28;20913;-71
2022/04/23 10:25:11;;;;;;;9.63;6.57;;;;;;;;;;5034533;28;20469;-70
2022/04/23 10:27:37;;;;;;;8.57;5.87;;;;;;;;;;5034721;28;20402;-70
2022/04/23 10:30:04;;;;;;;10.77;6.33;;;;;;;;;;5034631;28;20472;-68
2022/04/23 10:32:38;;;;;;;6.10;5.47;;;;;;;;;;5034591;28;20399;-70
2022/04/23 10:35:24;;;;;;;12.10;8.00;;;;;;;;;;5034355;28;20968;-69
2022/04/23 10:37:50;;;;;;;9.17;6.27;;;;;;;;;;5034366;28;20967;-74
2022/04/23 10:40:20;;;;;;;8.30;5.13;;;;;;;;;;5034399;28;20410;-71
2022/04/23 10:43:04;;;;;;;9.23;6.33;;;;;;;;;;5034308;28;20421;-65
2022/04/23 10:45:33;;;;;;;8.70;6.20;;;;;;;;;;5034358;28;20529;-68
2022/04/23 10:48:18;;;;;;;6.10;5.03;;;;;;;;;;5034320;28;20815;-69
2022/04/23 10:50:59;;;;;;;7.30;5.73;;;;;;;;;;5034186;28;20939;-72
2022/04/23 10:53:48;;;;;;;8.10;6.10;;;;;;;;;;5034148;28;20416;-73
2022/04/23 10:56:15;;;;;;;8.27;6.00;;;;;;;;;;5035960;28;20808;-70
2022/04/23 10:58:41;;;;;;;9.00;5.60;;;;;;;;;;5033448;28;20410;-70
2022/04/23 11:01:22;;;;;;;10.43;6.60;;;;;;;;;;5034094;28;20434;-72
2022/04/23 11:04:11;;;;;;;9.43;6.47;;;;;;;;;;5033827;28;20450;-72
2022/04/23 11:12:20;;;;;;;9.40;5.80;;;;;;;;;;5033901;28;20769;-71
2022/04/23 11:14:51;;;;;;;7.47;6.10;;;;;;;;;;5033728;28;20854;-71
2022/04/23 11:17:24;;;;;;;11.90;6.70;;;;;;;;;;5032447;28;20407;-67
2022/04/23 11:19:53;;;;;;;8.27;6.90;;;;;;;;;;5033654;28;20430;-73
2022/04/23 11:22:23;;;;;;;9.47;7.10;;;;;;;;;;5033573;28;20410;-72
2022/04/23 11:24:50;;;;;;;8.57;6.90;;;;;;;;;;5033456;28;20466;-72
2022/04/23 11:27:29;;;;;;;9.83;6.90;;;;;;;;;;5033686;28;20411;-70
2022/04/23 11:29:56;;;;;;;8.73;6.40;;;;;;;;;;5033599;28;20417;-65
2022/04/23 11:32:32;;;;;;;9.37;6.60;;;;;;;;;;5033474;28;20414;-69
2022/04/23 11:35:02;;;;;;;9.00;6.93;;;;;;;;;;5033433;28;20877;-71
2022/04/23 11:37:32;;;;;;;8.10;5.87;;;;;;;;;;5032215;28;20419;-70
2022/04/23 11:40:04;;;;;;;9.37;7.07;;;;;;;;;;5033398;28;20418;-71
2022/04/23 11:42:40;;;;;;;8.30;6.77;;;;;;;;;;5033381;28;20451;-72
2022/04/23 11:45:06;;;;;;;9.20;6.87;;;;;;;;;;5033188;28;20498;-73
2022/04/23 11:47:36;;;;;;;6.53;5.80;;;;;;;;;;5033336;28;20746;-72
2022/04/23 11:50:18;;;;;;;10.67;6.37;;;;;;;;;;5033297;28;20410;-71
2022/04/23 11:52:45;;;;;;;9.83;6.93;;;;;;;;;;5033111;28;20501;-73
2022/04/23 11:55:21;;;;;;;11.23;7.57;;;;;;;;;;5031853;28;20754;-68
2022/04/23 11:57:58;;;;;;;8.60;6.60;;;;;;;;;;5033238;28;20410;-71
2022/04/23 12:00:24;;;;;;;11.40;7.50;;;;;;;;;;5033160;28;20402;-70
2022/04/23 12:02:51;;;;;;;9.77;7.03;;;;;;;;;;5033073;28;20478;-68
2022/04/23 12:05:30;;;;;;;13.30;8.30;;;;;;;;;;5033190;28;20561;-73
2022/04/23 12:07:57;;;;;;;11.80;7.57;;;;;;;;;;5033176;28;20446;-70
2022/04/23 12:10:24;;;;;;;9.60;7.20;;;;;;;;;;5036946;28;20984;-73
2022/04/23 12:12:50;;;;;;;10.30;7.50;;;;;;;;;;5037070;28;20479;-67
2022/04/23 12:15:17;;;;;;;9.43;6.60;;;;;;;;;;5037103;28;20893;-68
2022/04/23 12:17:47;;;;;;;10.13;7.73;;;;;;;;;;5037061;28;20407;-70
2022/04/23 12:20:14;;;;;;;11.23;8.13;;;;;;;;;;5037022;28;20406;-69
2022/04/23 12:22:41;;;;;;;11.73;8.30;;;;;;;;;;5036918;28;20421;-71
2022/04/23 12:25:07;;;;;;;8.97;6.87;;;;;;;;;;5036792;28;20465;-71
2022/04/23 12:27:52;;;;;;;10.70;7.53;;;;;;;;;;5036887;28;20743;-68
2022/04/23 12:41:35;;;;;;;8.97;6.90;;;;;;;;;;5036962;28;20393;-65
2022/04/23 12:44:17;;;;;;;10.27;7.47;;;;;;;;;;5036508;28;20466;-69
2022/04/23 12:46:53;;;;;;;10.70;6.83;;;;;;;;;;5036518;28;20407;-69
2022/04/23 12:49:20;;;;;;;12.60;8.03;;;;;;;;;;5036654;28;20410;-71
2022/04/23 12:51:56;;;;;;;11.63;8.57;;;;;;;;;;5036388;28;20402;-68
2022/04/23 12:54:22;;;;;;;9.30;7.43;;;;;;;;;;5036406;28;20908;-70
2022/04/23 12:56:49;;;;;;;12.70;7.30;;;;;;;;;;5036263;28;20402;-70
2022/04/23 12:59:15;;;;;;;8.30;6.67;;;;;;;;;;5036313;28;20425;-73
2022/04/23 13:01:41;;;;;;;9.60;7.30;;;;;;;;;;5036280;28;20897;-67
2022/04/23 13:04:11;;;;;;;10.40;7.30;;;;;;;;;;5034911;28;20515;-71
2022/04/23 13:09:22;;;;;;;9.30;7.43;;;;;;;;;;5036321;28;20751;-69
2022/04/23 13:11:49;;;;;;;12.40;8.53;;;;;;;;;;5036194;28;20399;-71
2022/04/23 13:14:16;;;;;;;11.47;8.63;;;;;;;;;;5035845;28;20422;-72
2022/04/23 13:16:43;;;;;;;8.40;7.50;;;;;;;;;;5035863;28;20442;-73
2022/04/23 13:19:09;;;;;;;10.63;7.80;;;;;;;;;;5035926;28;20899;-72
2022/04/23 13:21:36;;;;;;;10.90;8.67;;;;;;;;;;5035229;28;20414;-72
2022/04/23 13:24:03;;;;;;;9.50;7.70;;;;;;;;;;5035667;28;20505;-69
2022/04/23 13:26:30;;;;;;;9.70;7.63;;;;;;;;;;5035804;28;20865;-71
2022/04/23 13:28:56;;;;;;;8.60;7.70;;;;;;;;;;5035715;28;20800;-72
2022/04/23 13:31:22;;;;;;;11.27;8.37;;;;;;;;;;5034423;28;20936;-72
2022/04/23 13:33:49;;;;;;;11.13;9.17;;;;;;;;;;5035623;28;20878;-68
2022/04/23 13:36:15;;;;;;;11.90;9.00;;;;;;;;;;5035564;28;20896;-67
2022/04/23 13:38:41;;;;;;;9.90;7.93;;;;;;;;;;5035605;28;20473;-70
2022/04/23 13:41:11;;;;;;;11.20;8.10;;;;;;;;;;5035579;28;20900;-69
2022/04/23 13:43:37;;;;;;;10.40;8.47;;;;;;;;;;5035287;28;20465;-71
2022/04/23 13:46:03;;;;;;;9.60;8.40;;;;;;;;;;5035445;28;20437;-68
2022/04/23 13:48:29;;;;;;;10.40;8.53;;;;;;;;;;5035498;28;20881;-69
2022/04/23 13:50:55;;;;;;;10.77;8.20;;;;;;;;;;5035311;28;20414;-68
2022/04/23 13:53:22;;;;;;;9.50;8.10;;;;;;;;;;5035318;28;20476;-68
2022/04/23 13:55:48;;;;;;;10.27;8.50;;;;;;;;;;5035157;28;20405;-66
2022/04/23 13:58:14;;;;;;;11.60;9.20;;;;;;;;;;5035313;28;20507;-66
2022/04/23 14:00:40;;;;;;;11.10;8.47;;;;;;;;;;5035221;28;20873;-67
2022/04/23 14:11:20;;;;;;;11.10;8.87;;;;;;;;;;5035098;28;20461;-67
2022/04/23 14:13:46;;;;;;;15.93;9.30;;;;;;;;;;5034794;28;20462;-71
2022/04/23 14:16:13;;;;;;;10.33;9.03;;;;;;;;;;5034699;28;20403;-68
2022/04/23 14:18:39;;;;;;;12.20;8.87;;;;;;;;;;5034883;28;20502;-70
2022/04/23 14:21:05;;;;;;;10.30;9.13;;;;;;;;;;5034778;28;20485;-72
2022/04/23 14:23:31;;;;;;;10.30;8.90;;;;;;;;;;5034673;28;20984;-73
2022/04/23 14:25:57;;;;;;;13.77;10.30;;;;;;;;;;5034732;28;20407;-71
2022/04/23 14:28:23;;;;;;;11.20;8.93;;;;;;;;;;5034623;28;20414;-72
2022/04/23 14:30:50;;;;;;;13.60;10.13;;;;;;;;;;5034498;28;20398;-65
2022/04/23 14:33:16;;;;;;;11.33;9.33;;;;;;;;;;5033508;28;20446;-70
2022/04/23 14:35:42;;;;;;;13.37;9.80;;;;;;;;;;5034495;28;20417;-70
2022/04/23 14:38:08;;;;;;;18.13;10.43;;;;;;;;;;5034707;28;20406;-70
2022/04/23 14:40:34;;;;;;;14.20;10.30;;;;;;;;;;5034443;28;20402;-73
2022/04/23 14:43:01;;;;;;;13.13;10.60;;;;;;;;;;5034269;28;20483;-72
2022/04/23 14:45:30;;;;;;;14.73;10.77;;;;;;;;;;5034133;28;20477;-70
2022/04/23 14:47:56;;;;;;;16.30;11.10;;;;;;;;;;5034371;28;20457;-71
2022/04/23 14:50:22;;;;;;;14.20;10.37;;;;;;;;;;5034207;28;20407;-67
2022/04/23 14:55:33;;;;;;;13.43;10.77;;;;;;;;;;5034134;28;20410;-70
2022/04/23 14:57:59;;;;;;;15.83;11.00;;;;;;;;;;5034027;28;20413;-70
2022/04/23 15:00:25;;;;;;;14.13;10.93;;;;;;;;;;5034182;28;20399;-70
2022/04/23 15:02:52;;;;;;;16.17;9.80;;;;;;;;;;5033895;28;20445;-65
2022/04/23 15:05:19;;;;;;;13.63;10.33;;;;;;;;;;5033811;28;20509;-72
2022/04/23 15:07:46;;;;;;;14.03;11.00;;;;;;;;;;5033753;28;20466;-71
2022/04/23 15:10:12;;;;;;;15.93;12.20;;;;;;;;;;5033865;28;20489;-71
2022/04/23 15:12:38;;;;;;;16.73;12.60;;;;;;;;;;5033823;28;20889;-71
2022/04/23 15:15:05;;;;;;;15.77;11.90;;;;;;;;;;5033460;28;20426;-68
2022/04/23 15:17:31;;;;;;;15.57;11.67;;;;;;;;;;5033622;28;20407;-72
2022/04/23 15:19:57;;;;;;;20.00;12.93;;;;;;;;;;5033500;28;20510;-65
2022/04/23 15:22:23;;;;;;;14.10;11.47;;;;;;;;;;5033585;28;20425;-69
2022/04/23 15:24:49;;;;;;;16.47;14.07;;;;;;;;;;5033554;28;20557;-70
2022/04/23 15:27:16;;;;;;;17.40;12.03;;;;;;;;;;5033338;28;20509;-67